Terminal Aerodrome Forecast
Issued by NWS Wilmington, OH

Home | Current Version | Previous Version | Text Only | Print | Product List | Glossary On
Versions: 1 2 3 4 5 6 7 8 9 10 11 12 13 14 15 16 17 18
000
FTUS41 KILN 081956 AAA
TAFCMH
TAF AMD
KCMH 081956Z 0820/0918 28008KT 1/4SM +SN FG OVC005
     FM082030 28008KT 3SM -SN SCT008 OVC025
     FM090400 27010KT 3SM -SN BR BKN008 OVC012
     FM091200 28011G19KT 3SM -SN OVC015=

USA.gov is the U.S. government's official web portal to all federal, state and local government web resources and services.